sensor_id;sensor_type;location;lat;lon;timestamp;P1;durP1;ratioP1;P2;durP2;ratioP2
24635;SDS011;12772;49.794;10.024;2023-04-06T00:02:29;9.20;;;7.22;;
24635;SDS011;12772;49.794;10.024;2023-04-06T00:06:32;9.18;;;7.85;;
24635;SDS011;12772;49.794;10.024;2023-04-06T00:10:34;9.23;;;7.10;;
24635;SDS011;12772;49.794;10.024;2023-04-06T00:14:36;8.25;;;6.80;;
24635;SDS011;12772;49.794;10.024;2023-04-06T00:18:38;11.82;;;7.50;;
24635;SDS011;12772;49.794;10.024;2023-04-06T00:22:41;8.68;;;7.78;;
24635;SDS011;12772;49.794;10.024;2023-04-06T00:26:43;9.82;;;7.70;;
24635;SDS011;12772;49.794;10.024;2023-04-06T00:30:45;9.73;;;7.70;;
24635;SDS011;12772;49.794;10.024;2023-04-06T00:34:47;9.38;;;6.90;;
24635;SDS011;12772;49.794;10.024;2023-04-06T00:38:49;9.07;;;7.70;;
24635;SDS011;12772;49.794;10.024;2023-04-06T00:42:51;9.50;;;7.38;;
24635;SDS011;12772;49.794;10.024;2023-04-06T00:46:54;8.98;;;7.53;;
24635;SDS011;12772;49.794;10.024;2023-04-06T00:50:57;10.65;;;7.78;;
24635;SDS011;12772;49.794;10.024;2023-04-06T00:54:59;8.02;;;7.22;;
24635;SDS011;12772;49.794;10.024;2023-04-06T00:59:01;10.48;;;7.97;;
24635;SDS011;12772;49.794;10.024;2023-04-06T01:03:03;8.68;;;7.72;;
24635;SDS011;12772;49.794;10.024;2023-04-06T01:07:06;9.68;;;8.35;;
24635;SDS011;12772;49.794;10.024;2023-04-06T01:11:08;12.27;;;9.10;;
24635;SDS011;12772;49.794;10.024;2023-04-06T01:15:11;9.48;;;8.48;;
24635;SDS011;12772;49.794;10.024;2023-04-06T01:19:13;8.77;;;7.88;;
24635;SDS011;12772;49.794;10.024;2023-04-06T01:23:16;9.85;;;8.40;;
24635;SDS011;12772;49.794;10.024;2023-04-06T01:27:18;13.07;;;8.75;;
24635;SDS011;12772;49.794;10.024;2023-04-06T01:31:20;11.30;;;8.52;;
24635;SDS011;12772;49.794;10.024;2023-04-06T01:35:22;9.23;;;8.32;;
24635;SDS011;12772;49.794;10.024;2023-04-06T01:39:25;9.07;;;7.95;;
24635;SDS011;12772;49.794;10.024;2023-04-06T01:43:27;10.20;;;9.10;;
24635;SDS011;12772;49.794;10.024;2023-04-06T01:47:29;11.77;;;9.18;;
24635;SDS011;12772;49.794;10.024;2023-04-06T01:51:31;11.35;;;9.10;;
24635;SDS011;12772;49.794;10.024;2023-04-06T01:55:33;11.32;;;9.50;;
24635;SDS011;12772;49.794;10.024;2023-04-06T01:59:35;12.05;;;9.10;;
24635;SDS011;12772;49.794;10.024;2023-04-06T02:03:37;10.48;;;8.43;;
24635;SDS011;12772;49.794;10.024;2023-04-06T02:07:39;11.07;;;8.15;;
24635;SDS011;12772;49.794;10.024;2023-04-06T02:11:41;10.13;;;8.25;;
24635;SDS011;12772;49.794;10.024;2023-04-06T02:15:43;9.18;;;8.23;;
24635;SDS011;12772;49.794;10.024;2023-04-06T02:19:45;10.90;;;8.68;;
24635;SDS011;12772;49.794;10.024;2023-04-06T02:23:47;12.10;;;8.57;;
24635;SDS011;12772;49.794;10.024;2023-04-06T02:27:49;9.80;;;7.78;;
24635;SDS011;12772;49.794;10.024;2023-04-06T02:31:52;8.88;;;7.97;;
24635;SDS011;12772;49.794;10.024;2023-04-06T02:35:54;10.32;;;8.48;;
24635;SDS011;12772;49.794;10.024;2023-04-06T02:39:56;11.70;;;9.32;;
24635;SDS011;12772;49.794;10.024;2023-04-06T02:43:58;9.68;;;8.63;;
24635;SDS011;12772;49.794;10.024;2023-04-06T02:48:00;10.27;;;8.57;;
24635;SDS011;12772;49.794;10.024;2023-04-06T02:52:02;9.05;;;8.07;;
24635;SDS011;12772;49.794;10.024;2023-04-06T02:56:04;10.38;;;8.40;;
24635;SDS011;12772;49.794;10.024;2023-04-06T03:00:07;10.90;;;8.35;;
24635;SDS011;12772;49.794;10.024;2023-04-06T03:04:09;11.93;;;8.85;;
24635;SDS011;12772;49.794;10.024;2023-04-06T03:08:12;10.48;;;8.82;;
24635;SDS011;12772;49.794;10.024;2023-04-06T03:12:14;13.37;;;8.93;;
24635;SDS011;12772;49.794;10.024;2023-04-06T03:16:16;11.90;;;8.95;;
24635;SDS011;12772;49.794;10.024;2023-04-06T03:20:18;9.50;;;8.15;;
24635;SDS011;12772;49.794;10.024;2023-04-06T03:24:20;12.60;;;9.50;;
24635;SDS011;12772;49.794;10.024;2023-04-06T03:28:22;11.50;;;8.50;;
24635;SDS011;12772;49.794;10.024;2023-04-06T03:32:24;10.40;;;8.65;;
24635;SDS011;12772;49.794;10.024;2023-04-06T03:36:26;10.57;;;8.75;;
24635;SDS011;12772;49.794;10.024;2023-04-06T03:40:29;9.50;;;8.25;;
24635;SDS011;12772;49.794;10.024;2023-04-06T03:44:33;9.90;;;8.77;;
24635;SDS011;12772;49.794;10.024;2023-04-06T03:48:36;9.98;;;8.10;;
24635;SDS011;12772;49.794;10.024;2023-04-06T03:52:38;10.05;;;8.45;;
24635;SDS011;12772;49.794;10.024;2023-04-06T03:56:40;9.75;;;7.78;;
24635;SDS011;12772;49.794;10.024;2023-04-06T04:00:42;11.43;;;9.20;;
24635;SDS011;12772;49.794;10.024;2023-04-06T04:04:44;10.57;;;8.15;;
24635;SDS011;12772;49.794;10.024;2023-04-06T04:08:46;9.45;;;8.45;;
24635;SDS011;12772;49.794;10.024;2023-04-06T04:12:48;11.00;;;7.93;;
24635;SDS011;12772;49.794;10.024;2023-04-06T04:16:50;9.68;;;8.35;;
24635;SDS011;12772;49.794;10.024;2023-04-06T04:20:52;10.70;;;8.27;;
24635;SDS011;12772;49.794;10.024;2023-04-06T04:24:55;8.60;;;7.80;;
24635;SDS011;12772;49.794;10.024;2023-04-06T04:28:57;8.55;;;7.65;;
24635;SDS011;12772;49.794;10.024;2023-04-06T04:32:59;11.55;;;8.93;;
24635;SDS011;12772;49.794;10.024;2023-04-06T04:37:01;10.53;;;8.97;;
24635;SDS011;12772;49.794;10.024;2023-04-06T04:41:03;8.93;;;8.02;;
24635;SDS011;12772;49.794;10.024;2023-04-06T04:45:05;10.80;;;8.57;;
24635;SDS011;12772;49.794;10.024;2023-04-06T04:49:08;14.57;;;9.88;;
24635;SDS011;12772;49.794;10.024;2023-04-06T04:53:10;9.93;;;8.60;;
24635;SDS011;12772;49.794;10.024;2023-04-06T04:57:12;11.40;;;8.77;;
24635;SDS011;12772;49.794;10.024;2023-04-06T05:01:14;10.77;;;8.80;;
24635;SDS011;12772;49.794;10.024;2023-04-06T05:05:16;10.60;;;8.93;;
24635;SDS011;12772;49.794;10.024;2023-04-06T05:09:18;13.43;;;10.10;;
24635;SDS011;12772;49.794;10.024;2023-04-06T05:13:20;10.53;;;9.53;;
24635;SDS011;12772;49.794;10.024;2023-04-06T05:17:23;10.27;;;8.90;;
24635;SDS011;12772;49.794;10.024;2023-04-06T05:21:25;13.87;;;9.77;;
24635;SDS011;12772;49.794;10.024;2023-04-06T05:25:28;13.20;;;9.80;;
24635;SDS011;12772;49.794;10.024;2023-04-06T05:29:30;20.03;;;9.63;;
24635;SDS011;12772;49.794;10.024;2023-04-06T05:33:32;13.23;;;10.67;;
24635;SDS011;12772;49.794;10.024;2023-04-06T05:37:34;12.53;;;10.07;;
24635;SDS011;12772;49.794;10.024;2023-04-06T05:41:36;13.87;;;9.50;;
24635;SDS011;12772;49.794;10.024;2023-04-06T05:45:39;11.50;;;8.75;;
24635;SDS011;12772;49.794;10.024;2023-04-06T05:49:43;14.43;;;10.20;;
24635;SDS011;12772;49.794;10.024;2023-04-06T05:53:45;12.07;;;9.40;;
24635;SDS011;12772;49.794;10.024;2023-04-06T05:57:48;12.77;;;9.30;;
24635;SDS011;12772;49.794;10.024;2023-04-06T06:01:50;10.75;;;9.45;;
24635;SDS011;12772;49.794;10.024;2023-04-06T06:05:52;11.17;;;8.87;;
24635;SDS011;12772;49.794;10.024;2023-04-06T06:09:57;10.00;;;8.93;;
24635;SDS011;12772;49.794;10.024;2023-04-06T06:13:59;11.87;;;9.47;;
24635;SDS011;12772;49.794;10.024;2023-04-06T06:18:01;10.13;;;8.47;;
24635;SDS011;12772;49.794;10.024;2023-04-06T06:22:04;13.05;;;9.95;;
24635;SDS011;12772;49.794;10.024;2023-04-06T06:26:06;13.82;;;9.68;;
24635;SDS011;12772;49.794;10.024;2023-04-06T06:30:08;13.25;;;9.20;;
24635;SDS011;12772;49.794;10.024;2023-04-06T06:34:10;14.57;;;9.38;;
24635;SDS011;12772;49.794;10.024;2023-04-06T06:38:13;12.02;;;9.68;;
24635;SDS011;12772;49.794;10.024;2023-04-06T06:42:15;11.63;;;9.35;;
24635;SDS011;12772;49.794;10.024;2023-04-06T06:46:17;12.13;;;10.02;;
24635;SDS011;12772;49.794;10.024;2023-04-06T06:50:20;9.35;;;8.07;;
24635;SDS011;12772;49.794;10.024;2023-04-06T06:54:22;8.85;;;7.53;;
24635;SDS011;12772;49.794;10.024;2023-04-06T06:58:24;8.07;;;6.70;;
24635;SDS011;12772;49.794;10.024;2023-04-06T07:02:26;10.52;;;6.88;;
24635;SDS011;12772;49.794;10.024;2023-04-06T07:06:28;7.35;;;6.65;;
24635;SDS011;12772;49.794;10.024;2023-04-06T07:10:30;9.27;;;6.38;;
24635;SDS011;12772;49.794;10.024;2023-04-06T07:14:32;9.45;;;6.53;;
24635;SDS011;12772;49.794;10.024;2023-04-06T07:18:34;9.60;;;6.90;;
24635;SDS011;12772;49.794;10.024;2023-04-06T07:22:37;9.77;;;6.78;;
24635;SDS011;12772;49.794;10.024;2023-04-06T07:26:40;7.55;;;6.85;;
24635;SDS011;12772;49.794;10.024;2023-04-06T07:30:42;8.40;;;6.60;;
24635;SDS011;12772;49.794;10.024;2023-04-06T07:34:44;8.60;;;6.72;;
24635;SDS011;12772;49.794;10.024;2023-04-06T07:38:47;10.63;;;7.03;;
24635;SDS011;12772;49.794;10.024;2023-04-06T07:42:49;8.13;;;6.80;;
24635;SDS011;12772;49.794;10.024;2023-04-06T07:46:51;9.48;;;6.88;;
24635;SDS011;12772;49.794;10.024;2023-04-06T07:51:00;7.90;;;6.53;;
24635;SDS011;12772;49.794;10.024;2023-04-06T07:55:03;8.25;;;7.45;;
24635;SDS011;12772;49.794;10.024;2023-04-06T07:59:06;9.35;;;7.05;;
24635;SDS011;12772;49.794;10.024;2023-04-06T08:03:08;7.53;;;6.75;;
24635;SDS011;12772;49.794;10.024;2023-04-06T08:07:10;7.93;;;7.10;;
24635;SDS011;12772;49.794;10.024;2023-04-06T08:11:12;8.60;;;7.18;;
24635;SDS011;12772;49.794;10.024;2023-04-06T08:15:14;8.60;;;7.70;;
24635;SDS011;12772;49.794;10.024;2023-04-06T08:19:18;7.72;;;7.03;;
24635;SDS011;12772;49.794;10.024;2023-04-06T08:23:20;7.90;;;7.10;;
24635;SDS011;12772;49.794;10.024;2023-04-06T08:27:22;10.20;;;7.30;;
24635;SDS011;12772;49.794;10.024;2023-04-06T08:31:25;7.85;;;7.03;;
24635;SDS011;12772;49.794;10.024;2023-04-06T08:35:27;8.57;;;7.55;;
24635;SDS011;12772;49.794;10.024;2023-04-06T08:39:29;9.88;;;7.38;;
24635;SDS011;12772;49.794;10.024;2023-04-06T08:43:31;8.07;;;7.30;;
24635;SDS011;12772;49.794;10.024;2023-04-06T08:47:33;8.65;;;7.75;;
24635;SDS011;12772;49.794;10.024;2023-04-06T08:51:36;7.80;;;7.00;;
24635;SDS011;12772;49.794;10.024;2023-04-06T08:55:39;11.32;;;7.20;;
24635;SDS011;12772;49.794;10.024;2023-04-06T08:59:43;7.72;;;6.95;;
24635;SDS011;12772;49.794;10.024;2023-04-06T09:03:45;9.07;;;7.82;;
24635;SDS011;12772;49.794;10.024;2023-04-06T09:07:49;8.68;;;7.78;;
24635;SDS011;12772;49.794;10.024;2023-04-06T09:11:52;7.95;;;6.95;;
24635;SDS011;12772;49.794;10.024;2023-04-06T09:16:03;9.82;;;7.72;;
24635;SDS011;12772;49.794;10.024;2023-04-06T09:20:06;8.60;;;7.78;;
24635;SDS011;12772;49.794;10.024;2023-04-06T09:24:08;8.73;;;7.57;;
24635;SDS011;12772;49.794;10.024;2023-04-06T09:28:10;8.45;;;7.55;;
24635;SDS011;12772;49.794;10.024;2023-04-06T09:32:13;11.10;;;7.90;;
24635;SDS011;12772;49.794;10.024;2023-04-06T09:36:17;9.38;;;7.55;;
24635;SDS011;12772;49.794;10.024;2023-04-06T09:40:19;9.02;;;8.13;;
24635;SDS011;12772;49.794;10.024;2023-04-06T09:44:22;8.73;;;7.93;;
24635;SDS011;12772;49.794;10.024;2023-04-06T09:48:26;10.20;;;8.30;;
24635;SDS011;12772;49.794;10.024;2023-04-06T09:52:33;11.18;;;8.25;;
24635;SDS011;12772;49.794;10.024;2023-04-06T09:56:50;8.93;;;7.65;;
24635;SDS011;12772;49.794;10.024;2023-04-06T10:01:10;10.05;;;7.97;;
24635;SDS011;12772;49.794;10.024;2023-04-06T10:05:21;9.70;;;8.60;;
24635;SDS011;12772;49.794;10.024;2023-04-06T10:09:31;11.93;;;8.65;;
24635;SDS011;12772;49.794;10.024;2023-04-06T10:13:36;8.95;;;8.05;;
24635;SDS011;12772;49.794;10.024;2023-04-06T10:17:38;10.30;;;8.30;;
24635;SDS011;12772;49.794;10.024;2023-04-06T10:21:40;10.43;;;8.52;;
24635;SDS011;12772;49.794;10.024;2023-04-06T10:25:53;9.73;;;8.02;;
24635;SDS011;12772;49.794;10.024;2023-04-06T10:30:01;9.38;;;8.07;;
24635;SDS011;12772;49.794;10.024;2023-04-06T10:34:05;8.07;;;7.25;;
24635;SDS011;12772;49.794;10.024;2023-04-06T10:38:07;9.88;;;8.40;;
24635;SDS011;12772;49.794;10.024;2023-04-06T10:42:09;9.38;;;8.02;;
24635;SDS011;12772;49.794;10.024;2023-04-06T10:46:11;8.38;;;7.50;;
24635;SDS011;12772;49.794;10.024;2023-04-06T10:50:14;7.40;;;6.60;;
24635;SDS011;12772;49.794;10.024;2023-04-06T10:54:17;7.60;;;6.80;;
24635;SDS011;12772;49.794;10.024;2023-04-06T10:58:20;10.18;;;7.80;;
24635;SDS011;12772;49.794;10.024;2023-04-06T11:02:25;8.02;;;7.22;;
24635;SDS011;12772;49.794;10.024;2023-04-06T11:06:29;10.27;;;7.13;;
24635;SDS011;12772;49.794;10.024;2023-04-06T11:10:32;8.07;;;7.28;;
24635;SDS011;12772;49.794;10.024;2023-04-06T11:14:34;8.88;;;7.80;;
24635;SDS011;12772;49.794;10.024;2023-04-06T11:18:37;8.63;;;7.80;;
24635;SDS011;12772;49.794;10.024;2023-04-06T11:22:51;8.70;;;7.90;;
24635;SDS011;12772;49.794;10.024;2023-04-06T11:26:54;9.13;;;8.18;;
24635;SDS011;12772;49.794;10.024;2023-04-06T11:30:57;8.75;;;7.93;;
24635;SDS011;12772;49.794;10.024;2023-04-06T11:35:00;8.07;;;7.38;;
24635;SDS011;12772;49.794;10.024;2023-04-06T11:39:03;7.93;;;7.20;;
24635;SDS011;12772;49.794;10.024;2023-04-06T11:43:05;8.35;;;7.55;;
24635;SDS011;12772;49.794;10.024;2023-04-06T11:47:08;9.52;;;7.78;;
24635;SDS011;12772;49.794;10.024;2023-04-06T11:51:11;9.90;;;7.90;;
24635;SDS011;12772;49.794;10.024;2023-04-06T11:55:17;8.73;;;7.85;;
24635;SDS011;12772;49.794;10.024;2023-04-06T11:59:20;7.53;;;6.82;;
24635;SDS011;12772;49.794;10.024;2023-04-06T12:03:23;7.70;;;7.00;;
24635;SDS011;12772;49.794;10.024;2023-04-06T12:07:25;8.10;;;7.30;;
24635;SDS011;12772;49.794;10.024;2023-04-06T12:11:27;9.95;;;8.73;;
24635;SDS011;12772;49.794;10.024;2023-04-06T12:15:29;9.75;;;8.77;;
24635;SDS011;12772;49.794;10.024;2023-04-06T12:19:31;8.88;;;8.07;;
24635;SDS011;12772;49.794;10.024;2023-04-06T12:23:33;8.48;;;7.70;;
24635;SDS011;12772;49.794;10.024;2023-04-06T12:27:35;8.63;;;7.75;;
24635;SDS011;12772;49.794;10.024;2023-04-06T12:31:37;10.57;;;7.75;;
24635;SDS011;12772;49.794;10.024;2023-04-06T12:35:41;7.13;;;6.53;;
24635;SDS011;12772;49.794;10.024;2023-04-06T12:39:43;7.70;;;7.10;;
24635;SDS011;12772;49.794;10.024;2023-04-06T12:43:45;8.38;;;7.57;;
24635;SDS011;12772;49.794;10.024;2023-04-06T12:47:47;9.15;;;7.13;;
24635;SDS011;12772;49.794;10.024;2023-04-06T12:51:50;8.43;;;7.63;;
24635;SDS011;12772;49.794;10.024;2023-04-06T12:55:53;8.05;;;7.25;;
24635;SDS011;12772;49.794;10.024;2023-04-06T12:59:56;8.50;;;7.60;;
24635;SDS011;12772;49.794;10.024;2023-04-06T13:03:59;10.45;;;7.90;;
24635;SDS011;12772;49.794;10.024;2023-04-06T13:08:01;10.60;;;7.88;;
24635;SDS011;12772;49.794;10.024;2023-04-06T13:12:03;7.82;;;7.07;;
24635;SDS011;12772;49.794;10.024;2023-04-06T13:16:08;10.82;;;7.80;;
24635;SDS011;12772;49.794;10.024;2023-04-06T13:20:11;8.23;;;7.43;;
24635;SDS011;12772;49.794;10.024;2023-04-06T13:24:14;8.63;;;7.72;;
24635;SDS011;12772;49.794;10.024;2023-04-06T13:28:16;7.88;;;6.97;;
24635;SDS011;12772;49.794;10.024;2023-04-06T13:32:18;8.05;;;6.50;;
24635;SDS011;12772;49.794;10.024;2023-04-06T13:36:22;7.28;;;6.65;;
24635;SDS011;12772;49.794;10.024;2023-04-06T13:40:24;7.32;;;6.63;;
24635;SDS011;12772;49.794;10.024;2023-04-06T13:44:27;7.40;;;6.75;;
24635;SDS011;12772;49.794;10.024;2023-04-06T13:48:29;6.68;;;6.07;;
24635;SDS011;12772;49.794;10.024;2023-04-06T13:52:31;6.22;;;5.63;;
24635;SDS011;12772;49.794;10.024;2023-04-06T13:56:34;7.45;;;6.68;;
24635;SDS011;12772;49.794;10.024;2023-04-06T14:00:36;8.13;;;6.63;;
24635;SDS011;12772;49.794;10.024;2023-04-06T14:04:38;7.95;;;7.00;;
24635;SDS011;12772;49.794;10.024;2023-04-06T14:08:40;7.53;;;6.78;;
24635;SDS011;12772;49.794;10.024;2023-04-06T14:12:42;6.68;;;5.97;;
24635;SDS011;12772;49.794;10.024;2023-04-06T14:16:45;7.22;;;6.53;;
24635;SDS011;12772;49.794;10.024;2023-04-06T14:20:54;6.88;;;6.28;;
24635;SDS011;12772;49.794;10.024;2023-04-06T14:24:56;6.82;;;6.22;;
24635;SDS011;12772;49.794;10.024;2023-04-06T14:28:58;9.15;;;6.47;;
24635;SDS011;12772;49.794;10.024;2023-04-06T14:33:01;7.00;;;6.30;;
24635;SDS011;12772;49.794;10.024;2023-04-06T14:37:03;6.70;;;6.05;;
24635;SDS011;12772;49.794;10.024;2023-04-06T14:41:05;7.07;;;6.45;;
24635;SDS011;12772;49.794;10.024;2023-04-06T14:45:08;6.85;;;6.25;;
24635;SDS011;12772;49.794;10.024;2023-04-06T14:49:10;6.35;;;5.75;;
24635;SDS011;12772;49.794;10.024;2023-04-06T14:53:13;6.43;;;5.93;;
24635;SDS011;12772;49.794;10.024;2023-04-06T14:57:18;6.70;;;5.88;;
24635;SDS011;12772;49.794;10.024;2023-04-06T15:01:20;8.20;;;5.65;;
24635;SDS011;12772;49.794;10.024;2023-04-06T15:05:22;6.47;;;5.88;;
24635;SDS011;12772;49.794;10.024;2023-04-06T15:09:29;8.10;;;5.82;;
24635;SDS011;12772;49.794;10.024;2023-04-06T15:13:35;5.72;;;5.20;;
24635;SDS011;12772;49.794;10.024;2023-04-06T15:17:37;8.52;;;5.53;;
24635;SDS011;12772;49.794;10.024;2023-04-06T15:21:39;6.97;;;6.28;;
24635;SDS011;12772;49.794;10.024;2023-04-06T15:25:41;7.85;;;5.90;;
24635;SDS011;12772;49.794;10.024;2023-04-06T15:29:44;5.68;;;5.18;;
24635;SDS011;12772;49.794;10.024;2023-04-06T15:33:49;10.32;;;6.57;;
24635;SDS011;12772;49.794;10.024;2023-04-06T15:37:51;6.70;;;6.05;;
24635;SDS011;12772;49.794;10.024;2023-04-06T15:41:54;6.30;;;5.75;;
24635;SDS011;12772;49.794;10.024;2023-04-06T15:45:59;6.35;;;5.78;;
24635;SDS011;12772;49.794;10.024;2023-04-06T15:50:01;6.57;;;5.95;;
24635;SDS011;12772;49.794;10.024;2023-04-06T15:54:03;7.25;;;5.32;;
24635;SDS011;12772;49.794;10.024;2023-04-06T15:58:05;7.72;;;5.80;;
24635;SDS011;12772;49.794;10.024;2023-04-06T16:02:07;5.68;;;5.18;;
24635;SDS011;12772;49.794;10.024;2023-04-06T16:06:09;5.57;;;5.03;;
24635;SDS011;12772;49.794;10.024;2023-04-06T16:10:11;7.30;;;6.60;;
24635;SDS011;12772;49.794;10.024;2023-04-06T16:14:13;6.28;;;4.80;;
24635;SDS011;12772;49.794;10.024;2023-04-06T16:18:15;7.93;;;6.15;;
24635;SDS011;12772;49.794;10.024;2023-04-06T16:22:17;8.15;;;5.63;;
24635;SDS011;12772;49.794;10.024;2023-04-06T16:26:20;10.23;;;6.13;;
24635;SDS011;12772;49.794;10.024;2023-04-06T16:30:23;6.45;;;5.85;;
24635;SDS011;12772;49.794;10.024;2023-04-06T16:34:30;6.03;;;5.43;;
24635;SDS011;12772;49.794;10.024;2023-04-06T16:38:33;6.00;;;5.40;;
24635;SDS011;12772;49.794;10.024;2023-04-06T16:42:35;6.28;;;5.65;;
24635;SDS011;12772;49.794;10.024;2023-04-06T16:46:37;7.10;;;5.18;;
24635;SDS011;12772;49.794;10.024;2023-04-06T16:50:39;5.90;;;5.30;;
24635;SDS011;12772;49.794;10.024;2023-04-06T16:54:41;6.38;;;5.68;;
24635;SDS011;12772;49.794;10.024;2023-04-06T16:58:43;5.78;;;5.18;;
24635;SDS011;12772;49.794;10.024;2023-04-06T17:02:46;6.22;;;5.53;;
24635;SDS011;12772;49.794;10.024;2023-04-06T17:06:48;10.30;;;6.88;;
24635;SDS011;12772;49.794;10.024;2023-04-06T17:10:50;7.25;;;6.43;;
24635;SDS011;12772;49.794;10.024;2023-04-06T17:14:52;7.57;;;6.22;;
24635;SDS011;12772;49.794;10.024;2023-04-06T17:18:56;7.20;;;5.97;;
24635;SDS011;12772;49.794;10.024;2023-04-06T17:22:58;6.97;;;6.25;;
24635;SDS011;12772;49.794;10.024;2023-04-06T17:27:00;7.38;;;6.53;;
24635;SDS011;12772;49.794;10.024;2023-04-06T17:31:05;7.20;;;6.35;;
24635;SDS011;12772;49.794;10.024;2023-04-06T17:35:09;8.27;;;7.45;;
24635;SDS011;12772;49.794;10.024;2023-04-06T17:39:11;7.75;;;7.05;;
24635;SDS011;12772;49.794;10.024;2023-04-06T17:43:13;12.95;;;8.45;;
24635;SDS011;12772;49.794;10.024;2023-04-06T17:47:16;7.88;;;7.07;;
24635;SDS011;12772;49.794;10.024;2023-04-06T17:51:18;9.20;;;7.10;;
24635;SDS011;12772;49.794;10.024;2023-04-06T17:55:20;9.02;;;8.10;;
24635;SDS011;12772;49.794;10.024;2023-04-06T17:59:22;11.85;;;10.65;;
24635;SDS011;12772;49.794;10.024;2023-04-06T18:03:24;14.75;;;11.75;;
24635;SDS011;12772;49.794;10.024;2023-04-06T18:07:27;12.57;;;11.18;;
24635;SDS011;12772;49.794;10.024;2023-04-06T18:11:29;11.40;;;9.23;;
24635;SDS011;12772;49.794;10.024;2023-04-06T18:15:33;9.02;;;8.10;;
24635;SDS011;12772;49.794;10.024;2023-04-06T18:19:37;10.52;;;8.60;;
24635;SDS011;12772;49.794;10.024;2023-04-06T18:23:39;9.48;;;8.38;;
24635;SDS011;12772;49.794;10.024;2023-04-06T18:27:41;8.98;;;7.53;;
24635;SDS011;12772;49.794;10.024;2023-04-06T18:31:44;8.80;;;8.00;;
24635;SDS011;12772;49.794;10.024;2023-04-06T18:35:49;7.53;;;6.82;;
24635;SDS011;12772;49.794;10.024;2023-04-06T18:39:51;10.27;;;7.65;;
24635;SDS011;12772;49.794;10.024;2023-04-06T18:43:54;8.70;;;7.78;;
24635;SDS011;12772;49.794;10.024;2023-04-06T18:47:56;8.60;;;7.25;;
24635;SDS011;12772;49.794;10.024;2023-04-06T18:51:58;8.48;;;7.53;;
24635;SDS011;12772;49.794;10.024;2023-04-06T18:56:01;7.80;;;7.00;;
24635;SDS011;12772;49.794;10.024;2023-04-06T19:00:04;7.30;;;6.60;;
24635;SDS011;12772;49.794;10.024;2023-04-06T19:04:07;8.05;;;7.25;;
24635;SDS011;12772;49.794;10.024;2023-04-06T19:08:10;8.90;;;7.82;;
24635;SDS011;12772;49.794;10.024;2023-04-06T19:12:12;9.75;;;8.68;;
24635;SDS011;12772;49.794;10.024;2023-04-06T19:16:15;9.23;;;7.97;;
24635;SDS011;12772;49.794;10.024;2023-04-06T19:20:17;9.05;;;8.15;;
24635;SDS011;12772;49.794;10.024;2023-04-06T19:24:19;9.45;;;8.30;;
24635;SDS011;12772;49.794;10.024;2023-04-06T19:28:21;15.73;;;11.80;;
24635;SDS011;12772;49.794;10.024;2023-04-06T19:32:23;15.68;;;11.30;;
24635;SDS011;12772;49.794;10.024;2023-04-06T19:36:26;14.95;;;10.70;;
24635;SDS011;12772;49.794;10.024;2023-04-06T19:40:28;11.55;;;9.35;;
24635;SDS011;12772;49.794;10.024;2023-04-06T19:44:30;10.45;;;9.05;;
24635;SDS011;12772;49.794;10.024;2023-04-06T19:48:32;11.57;;;8.98;;
24635;SDS011;12772;49.794;10.024;2023-04-06T19:52:35;13.13;;;9.23;;
24635;SDS011;12772;49.794;10.024;2023-04-06T19:56:37;12.82;;;8.85;;
24635;SDS011;12772;49.794;10.024;2023-04-06T20:00:39;10.55;;;9.15;;
24635;SDS011;12772;49.794;10.024;2023-04-06T20:04:41;10.48;;;9.32;;
24635;SDS011;12772;49.794;10.024;2023-04-06T20:08:43;10.88;;;9.27;;
24635;SDS011;12772;49.794;10.024;2023-04-06T20:12:45;11.35;;;9.85;;
24635;SDS011;12772;49.794;10.024;2023-04-06T20:16:48;12.52;;;11.10;;
24635;SDS011;12772;49.794;10.024;2023-04-06T20:20:51;11.52;;;10.07;;
24635;SDS011;12772;49.794;10.024;2023-04-06T20:24:53;12.93;;;11.38;;
24635;SDS011;12772;49.794;10.024;2023-04-06T20:28:55;13.40;;;11.63;;
24635;SDS011;12772;49.794;10.024;2023-04-06T20:32:57;11.75;;;10.05;;
24635;SDS011;12772;49.794;10.024;2023-04-06T20:36:59;10.90;;;9.65;;
24635;SDS011;12772;49.794;10.024;2023-04-06T20:41:01;10.57;;;9.48;;
24635;SDS011;12772;49.794;10.024;2023-04-06T20:45:04;10.57;;;9.52;;
24635;SDS011;12772;49.794;10.024;2023-04-06T20:49:06;9.80;;;8.43;;
24635;SDS011;12772;49.794;10.024;2023-04-06T20:53:09;10.52;;;9.43;;
24635;SDS011;12772;49.794;10.024;2023-04-06T20:57:11;10.13;;;9.02;;
24635;SDS011;12772;49.794;10.024;2023-04-06T21:01:13;11.05;;;9.35;;
24635;SDS011;12772;49.794;10.024;2023-04-06T21:05:16;10.45;;;9.25;;
24635;SDS011;12772;49.794;10.024;2023-04-06T21:09:20;10.82;;;9.05;;
24635;SDS011;12772;49.794;10.024;2023-04-06T21:13:24;14.20;;;9.38;;
24635;SDS011;12772;49.794;10.024;2023-04-06T21:17:26;10.98;;;9.73;;
24635;SDS011;12772;49.794;10.024;2023-04-06T21:21:28;9.90;;;8.90;;
24635;SDS011;12772;49.794;10.024;2023-04-06T21:25:30;12.50;;;8.50;;
24635;SDS011;12772;49.794;10.024;2023-04-06T21:29:32;10.40;;;9.25;;
24635;SDS011;12772;49.794;10.024;2023-04-06T21:33:34;9.85;;;8.75;;
24635;SDS011;12772;49.794;10.024;2023-04-06T21:37:36;10.57;;;9.48;;
24635;SDS011;12772;49.794;10.024;2023-04-06T21:41:38;11.35;;;9.18;;
24635;SDS011;12772;49.794;10.024;2023-04-06T21:45:40;10.38;;;9.23;;
24635;SDS011;12772;49.794;10.024;2023-04-06T21:49:49;12.60;;;10.18;;
24635;SDS011;12772;49.794;10.024;2023-04-06T21:53:51;10.68;;;8.98;;
24635;SDS011;12772;49.794;10.024;2023-04-06T21:57:55;8.90;;;7.97;;
24635;SDS011;12772;49.794;10.024;2023-04-06T22:01:57;8.85;;;7.63;;
24635;SDS011;12772;49.794;10.024;2023-04-06T22:06:02;8.25;;;7.15;;
24635;SDS011;12772;49.794;10.024;2023-04-06T22:10:04;7.53;;;5.95;;
24635;SDS011;12772;49.794;10.024;2023-04-06T22:14:07;5.63;;;5.10;;
24635;SDS011;12772;49.794;10.024;2023-04-06T22:18:09;6.63;;;4.65;;
24635;SDS011;12772;49.794;10.024;2023-04-06T22:22:11;5.15;;;3.97;;
24635;SDS011;12772;49.794;10.024;2023-04-06T22:26:13;3.40;;;3.10;;
24635;SDS011;12772;49.794;10.024;2023-04-06T22:30:15;5.05;;;3.08;;
24635;SDS011;12772;49.794;10.024;2023-04-06T22:34:17;3.53;;;2.92;;
24635;SDS011;12772;49.794;10.024;2023-04-06T22:38:19;3.10;;;2.80;;
24635;SDS011;12772;49.794;10.024;2023-04-06T22:42:21;3.35;;;3.05;;
24635;SDS011;12772;49.794;10.024;2023-04-06T22:46:23;5.38;;;2.97;;
24635;SDS011;12772;49.794;10.024;2023-04-06T22:50:25;3.17;;;2.88;;
24635;SDS011;12772;49.794;10.024;2023-04-06T22:54:27;4.40;;;3.00;;
24635;SDS011;12772;49.794;10.024;2023-04-06T22:58:29;3.38;;;2.95;;
24635;SDS011;12772;49.794;10.024;2023-04-06T23:02:31;3.30;;;3.00;;
24635;SDS011;12772;49.794;10.024;2023-04-06T23:06:33;3.63;;;3.33;;
24635;SDS011;12772;49.794;10.024;2023-04-06T23:10:35;4.38;;;3.67;;
24635;SDS011;12772;49.794;10.024;2023-04-06T23:14:41;4.57;;;3.63;;
24635;SDS011;12772;49.794;10.024;2023-04-06T23:18:43;3.72;;;3.42;;
24635;SDS011;12772;49.794;10.024;2023-04-06T23:22:45;4.22;;;3.83;;
24635;SDS011;12772;49.794;10.024;2023-04-06T23:26:47;4.28;;;3.38;;
24635;SDS011;12772;49.794;10.024;2023-04-06T23:30:49;4.15;;;3.75;;
24635;SDS011;12772;49.794;10.024;2023-04-06T23:34:51;3.92;;;3.63;;
24635;SDS011;12772;49.794;10.024;2023-04-06T23:38:53;3.90;;;3.55;;
24635;SDS011;12772;49.794;10.024;2023-04-06T23:42:55;4.80;;;3.67;;
24635;SDS011;12772;49.794;10.024;2023-04-06T23:46:57;5.55;;;3.80;;
24635;SDS011;12772;49.794;10.024;2023-04-06T23:50:59;4.63;;;4.22;;